sensor_id;sensor_type;location;lat;lon;timestamp;P1;durP1;ratioP1;P2;durP2;ratioP2
68188;SDS011;66299;47.514;19.218;2023-05-17T00:02:02;32.50;;;11.87;;
68188;SDS011;66299;47.514;19.218;2023-05-17T00:04:32;27.35;;;11.48;;
68188;SDS011;66299;47.514;19.218;2023-05-17T00:07:01;31.55;;;11.85;;
68188;SDS011;66299;47.514;19.218;2023-05-17T00:09:31;25.70;;;11.30;;
68188;SDS011;66299;47.514;19.218;2023-05-17T00:12:00;30.02;;;12.32;;
68188;SDS011;66299;47.514;19.218;2023-05-17T00:14:28;34.75;;;11.77;;
68188;SDS011;66299;47.514;19.218;2023-05-17T00:16:57;23.70;;;12.63;;
68188;SDS011;66299;47.514;19.218;2023-05-17T00:19:25;23.35;;;12.05;;
68188;SDS011;66299;47.514;19.218;2023-05-17T00:24:37;25.25;;;12.07;;
68188;SDS011;66299;47.514;19.218;2023-05-17T00:27:05;24.17;;;12.68;;
68188;SDS011;66299;47.514;19.218;2023-05-17T00:29:34;29.40;;;12.93;;
68188;SDS011;66299;47.514;19.218;2023-05-17T00:32:03;29.98;;;12.95;;
68188;SDS011;66299;47.514;19.218;2023-05-17T00:34:33;27.70;;;12.68;;
68188;SDS011;66299;47.514;19.218;2023-05-17T00:37:03;26.20;;;12.45;;
68188;SDS011;66299;47.514;19.218;2023-05-17T00:39:33;31.08;;;13.30;;
68188;SDS011;66299;47.514;19.218;2023-05-17T00:42:03;28.23;;;12.87;;
68188;SDS011;66299;47.514;19.218;2023-05-17T00:44:32;24.10;;;12.80;;
68188;SDS011;66299;47.514;19.218;2023-05-17T00:47:01;29.45;;;13.18;;
68188;SDS011;66299;47.514;19.218;2023-05-17T00:49:31;30.30;;;13.23;;
68188;SDS011;66299;47.514;19.218;2023-05-17T00:52:00;27.17;;;13.00;;
68188;SDS011;66299;47.514;19.218;2023-05-17T00:54:28;27.45;;;12.93;;
68188;SDS011;66299;47.514;19.218;2023-05-17T00:56:59;26.40;;;13.23;;
68188;SDS011;66299;47.514;19.218;2023-05-17T00:59:29;23.20;;;11.82;;
68188;SDS011;66299;47.514;19.218;2023-05-17T01:01:59;25.27;;;12.50;;
68188;SDS011;66299;47.514;19.218;2023-05-17T01:04:31;28.63;;;13.68;;
68188;SDS011;66299;47.514;19.218;2023-05-17T01:07:05;30.40;;;14.48;;
68188;SDS011;66299;47.514;19.218;2023-05-17T01:09:35;25.45;;;13.32;;
68188;SDS011;66299;47.514;19.218;2023-05-17T01:12:17;28.88;;;14.30;;
68188;SDS011;66299;47.514;19.218;2023-05-17T01:14:57;33.17;;;13.77;;
68188;SDS011;66299;47.514;19.218;2023-05-17T01:17:35;93.18;;;17.13;;
68188;SDS011;66299;47.514;19.218;2023-05-17T01:20:11;135.38;;;18.42;;
68188;SDS011;66299;47.514;19.218;2023-05-17T01:22:47;84.65;;;17.23;;
68188;SDS011;66299;47.514;19.218;2023-05-17T01:25:28;57.88;;;17.33;;
68188;SDS011;66299;47.514;19.218;2023-05-17T01:28:10;112.38;;;17.35;;
68188;SDS011;66299;47.514;19.218;2023-05-17T01:30:40;117.65;;;16.98;;
68188;SDS011;66299;47.514;19.218;2023-05-17T01:33:12;258.17;;;22.30;;
68188;SDS011;66299;47.514;19.218;2023-05-17T01:35:43;225.43;;;19.95;;
68188;SDS011;66299;47.514;19.218;2023-05-17T01:38:12;262.65;;;20.30;;
68188;SDS011;66299;47.514;19.218;2023-05-17T01:40:47;185.68;;;19.10;;
68188;SDS011;66299;47.514;19.218;2023-05-17T01:43:30;196.95;;;20.02;;
68188;SDS011;66299;47.514;19.218;2023-05-17T01:46:12;244.15;;;19.88;;
68188;SDS011;66299;47.514;19.218;2023-05-17T01:48:48;155.88;;;18.42;;
68188;SDS011;66299;47.514;19.218;2023-05-17T01:51:28;428.63;;;24.77;;
68188;SDS011;66299;47.514;19.218;2023-05-17T01:54:01;199.07;;;21.95;;
68188;SDS011;66299;47.514;19.218;2023-05-17T01:56:40;206.27;;;22.05;;
68188;SDS011;66299;47.514;19.218;2023-05-17T01:59:12;621.80;;;32.08;;
68188;SDS011;66299;47.514;19.218;2023-05-17T02:01:44;81.90;;;19.80;;
68188;SDS011;66299;47.514;19.218;2023-05-17T02:04:15;48.50;;;18.13;;
68188;SDS011;66299;47.514;19.218;2023-05-17T02:06:44;34.83;;;18.25;;
68188;SDS011;66299;47.514;19.218;2023-05-17T02:09:17;32.80;;;18.63;;
68188;SDS011;66299;47.514;19.218;2023-05-17T02:11:47;33.22;;;18.05;;
68188;SDS011;66299;47.514;19.218;2023-05-17T02:14:17;37.40;;;18.23;;
68188;SDS011;66299;47.514;19.218;2023-05-17T02:16:46;32.92;;;18.60;;
68188;SDS011;66299;47.514;19.218;2023-05-17T02:19:14;34.83;;;18.08;;
68188;SDS011;66299;47.514;19.218;2023-05-17T02:21:47;33.30;;;17.75;;
68188;SDS011;66299;47.514;19.218;2023-05-17T02:24:16;31.17;;;16.48;;
68188;SDS011;66299;47.514;19.218;2023-05-17T02:26:47;28.30;;;15.88;;
68188;SDS011;66299;47.514;19.218;2023-05-17T02:29:16;33.95;;;18.20;;
68188;SDS011;66299;47.514;19.218;2023-05-17T02:31:47;29.00;;;16.88;;
68188;SDS011;66299;47.514;19.218;2023-05-17T02:34:15;28.38;;;15.85;;
68188;SDS011;66299;47.514;19.218;2023-05-17T02:36:47;28.67;;;16.27;;
68188;SDS011;66299;47.514;19.218;2023-05-17T02:39:15;30.33;;;16.23;;
68188;SDS011;66299;47.514;19.218;2023-05-17T02:41:47;29.05;;;15.23;;
68188;SDS011;66299;47.514;19.218;2023-05-17T02:44:16;30.85;;;15.27;;
68188;SDS011;66299;47.514;19.218;2023-05-17T02:46:46;29.35;;;16.17;;
68188;SDS011;66299;47.514;19.218;2023-05-17T02:49:18;32.50;;;17.02;;
68188;SDS011;66299;47.514;19.218;2023-05-17T02:51:47;30.75;;;16.08;;
68188;SDS011;66299;47.514;19.218;2023-05-17T02:54:16;27.92;;;15.68;;
68188;SDS011;66299;47.514;19.218;2023-05-17T02:56:44;30.50;;;14.85;;
68188;SDS011;66299;47.514;19.218;2023-05-17T02:59:15;33.83;;;15.15;;
68188;SDS011;66299;47.514;19.218;2023-05-17T03:01:48;29.55;;;14.85;;
68188;SDS011;66299;47.514;19.218;2023-05-17T03:04:17;28.30;;;14.30;;
68188;SDS011;66299;47.514;19.218;2023-05-17T03:06:46;30.35;;;14.40;;
68188;SDS011;66299;47.514;19.218;2023-05-17T03:09:18;33.45;;;15.32;;
68188;SDS011;66299;47.514;19.218;2023-05-17T03:11:55;29.83;;;15.30;;
68188;SDS011;66299;47.514;19.218;2023-05-17T03:14:25;26.77;;;14.00;;
68188;SDS011;66299;47.514;19.218;2023-05-17T03:16:56;28.58;;;13.98;;
68188;SDS011;66299;47.514;19.218;2023-05-17T03:19:26;30.15;;;14.45;;
68188;SDS011;66299;47.514;19.218;2023-05-17T03:21:55;32.20;;;14.55;;
68188;SDS011;66299;47.514;19.218;2023-05-17T03:24:23;30.25;;;15.00;;
68188;SDS011;66299;47.514;19.218;2023-05-17T03:26:52;31.20;;;14.32;;
68188;SDS011;66299;47.514;19.218;2023-05-17T03:29:22;34.65;;;14.82;;
68188;SDS011;66299;47.514;19.218;2023-05-17T03:31:51;33.45;;;15.07;;
68188;SDS011;66299;47.514;19.218;2023-05-17T03:34:21;33.58;;;15.38;;
68188;SDS011;66299;47.514;19.218;2023-05-17T03:36:51;31.52;;;14.88;;
68188;SDS011;66299;47.514;19.218;2023-05-17T03:39:19;29.30;;;14.32;;
68188;SDS011;66299;47.514;19.218;2023-05-17T03:41:48;31.17;;;15.05;;
68188;SDS011;66299;47.514;19.218;2023-05-17T03:44:22;45.45;;;15.20;;
68188;SDS011;66299;47.514;19.218;2023-05-17T03:46:55;28.20;;;14.82;;
68188;SDS011;66299;47.514;19.218;2023-05-17T03:49:27;34.72;;;15.10;;
68188;SDS011;66299;47.514;19.218;2023-05-17T03:51:55;33.97;;;16.27;;
68188;SDS011;66299;47.514;19.218;2023-05-17T03:54:25;31.27;;;16.70;;
68188;SDS011;66299;47.514;19.218;2023-05-17T03:56:54;37.28;;;16.95;;
68188;SDS011;66299;47.514;19.218;2023-05-17T03:59:24;31.00;;;16.45;;
68188;SDS011;66299;47.514;19.218;2023-05-17T04:02:00;40.90;;;18.58;;
68188;SDS011;66299;47.514;19.218;2023-05-17T04:04:31;42.10;;;19.80;;
68188;SDS011;66299;47.514;19.218;2023-05-17T04:07:00;42.42;;;20.25;;
68188;SDS011;66299;47.514;19.218;2023-05-17T04:09:29;38.90;;;19.63;;
68188;SDS011;66299;47.514;19.218;2023-05-17T04:12:02;44.72;;;20.00;;
68188;SDS011;66299;47.514;19.218;2023-05-17T04:14:36;41.75;;;19.30;;
68188;SDS011;66299;47.514;19.218;2023-05-17T04:17:04;36.40;;;18.73;;
68188;SDS011;66299;47.514;19.218;2023-05-17T04:19:35;39.58;;;19.00;;
68188;SDS011;66299;47.514;19.218;2023-05-17T04:22:06;36.28;;;18.27;;
68188;SDS011;66299;47.514;19.218;2023-05-17T04:24:39;34.75;;;16.80;;
68188;SDS011;66299;47.514;19.218;2023-05-17T04:27:08;42.72;;;18.10;;
68188;SDS011;66299;47.514;19.218;2023-05-17T04:32:07;39.45;;;17.95;;
68188;SDS011;66299;47.514;19.218;2023-05-17T04:34:38;39.13;;;18.98;;
68188;SDS011;66299;47.514;19.218;2023-05-17T04:37:09;33.75;;;16.95;;
68188;SDS011;66299;47.514;19.218;2023-05-17T04:39:37;34.80;;;18.45;;
68188;SDS011;66299;47.514;19.218;2023-05-17T04:42:08;31.48;;;17.08;;
68188;SDS011;66299;47.514;19.218;2023-05-17T04:44:38;37.85;;;17.27;;
68188;SDS011;66299;47.514;19.218;2023-05-17T04:47:07;30.17;;;16.45;;
68188;SDS011;66299;47.514;19.218;2023-05-17T04:49:39;32.70;;;15.85;;
68188;SDS011;66299;47.514;19.218;2023-05-17T04:52:13;26.67;;;15.50;;
68188;SDS011;66299;47.514;19.218;2023-05-17T04:54:41;25.50;;;15.10;;
68188;SDS011;66299;47.514;19.218;2023-05-17T04:57:10;27.55;;;15.35;;
68188;SDS011;66299;47.514;19.218;2023-05-17T04:59:45;30.70;;;14.48;;
68188;SDS011;66299;47.514;19.218;2023-05-17T05:02:16;25.55;;;14.73;;
68188;SDS011;66299;47.514;19.218;2023-05-17T05:04:47;27.73;;;14.63;;
68188;SDS011;66299;47.514;19.218;2023-05-17T05:07:16;31.00;;;14.90;;
68188;SDS011;66299;47.514;19.218;2023-05-17T05:09:46;25.23;;;14.27;;
68188;SDS011;66299;47.514;19.218;2023-05-17T05:12:17;26.30;;;14.23;;
68188;SDS011;66299;47.514;19.218;2023-05-17T05:14:49;25.85;;;14.05;;
68188;SDS011;66299;47.514;19.218;2023-05-17T05:17:18;28.25;;;14.60;;
68188;SDS011;66299;47.514;19.218;2023-05-17T05:19:51;23.90;;;14.93;;
68188;SDS011;66299;47.514;19.218;2023-05-17T05:22:21;25.88;;;15.32;;
68188;SDS011;66299;47.514;19.218;2023-05-17T05:27:24;24.05;;;14.43;;
68188;SDS011;66299;47.514;19.218;2023-05-17T05:29:54;26.40;;;13.85;;
68188;SDS011;66299;47.514;19.218;2023-05-17T05:32:22;26.83;;;13.55;;
68188;SDS011;66299;47.514;19.218;2023-05-17T05:34:52;24.30;;;13.77;;
68188;SDS011;66299;47.514;19.218;2023-05-17T05:37:21;27.80;;;14.00;;
68188;SDS011;66299;47.514;19.218;2023-05-17T05:39:51;31.02;;;13.73;;
68188;SDS011;66299;47.514;19.218;2023-05-17T05:42:23;23.20;;;12.07;;
68188;SDS011;66299;47.514;19.218;2023-05-17T05:44:52;24.42;;;12.13;;
68188;SDS011;66299;47.514;19.218;2023-05-17T05:47:21;25.65;;;11.65;;
68188;SDS011;66299;47.514;19.218;2023-05-17T05:49:53;23.70;;;12.18;;
68188;SDS011;66299;47.514;19.218;2023-05-17T05:52:25;22.95;;;11.18;;
68188;SDS011;66299;47.514;19.218;2023-05-17T05:54:56;22.83;;;11.10;;
68188;SDS011;66299;47.514;19.218;2023-05-17T05:57:26;24.23;;;12.05;;
68188;SDS011;66299;47.514;19.218;2023-05-17T05:59:55;22.25;;;11.88;;
68188;SDS011;66299;47.514;19.218;2023-05-17T06:02:28;22.90;;;12.15;;
68188;SDS011;66299;47.514;19.218;2023-05-17T06:05:00;22.77;;;11.57;;
68188;SDS011;66299;47.514;19.218;2023-05-17T06:07:35;21.77;;;11.68;;
68188;SDS011;66299;47.514;19.218;2023-05-17T06:10:04;26.83;;;12.80;;
68188;SDS011;66299;47.514;19.218;2023-05-17T06:12:38;26.30;;;11.60;;
68188;SDS011;66299;47.514;19.218;2023-05-17T06:15:07;24.58;;;11.82;;
68188;SDS011;66299;47.514;19.218;2023-05-17T06:20:10;24.02;;;11.93;;
68188;SDS011;66299;47.514;19.218;2023-05-17T06:22:41;25.48;;;12.27;;
68188;SDS011;66299;47.514;19.218;2023-05-17T06:25:12;29.75;;;13.13;;
68188;SDS011;66299;47.514;19.218;2023-05-17T06:27:44;23.00;;;11.43;;
68188;SDS011;66299;47.514;19.218;2023-05-17T06:30:15;26.58;;;12.43;;
68188;SDS011;66299;47.514;19.218;2023-05-17T06:32:43;22.90;;;12.18;;
68188;SDS011;66299;47.514;19.218;2023-05-17T06:35:22;24.73;;;12.50;;
68188;SDS011;66299;47.514;19.218;2023-05-17T06:37:54;26.67;;;12.95;;
68188;SDS011;66299;47.514;19.218;2023-05-17T06:40:23;25.67;;;12.45;;
68188;SDS011;66299;47.514;19.218;2023-05-17T06:42:56;29.30;;;13.00;;
68188;SDS011;66299;47.514;19.218;2023-05-17T06:45:28;23.63;;;12.23;;
68188;SDS011;66299;47.514;19.218;2023-05-17T06:47:57;22.17;;;12.20;;
68188;SDS011;66299;47.514;19.218;2023-05-17T06:50:28;20.90;;;11.63;;
68188;SDS011;66299;47.514;19.218;2023-05-17T06:52:59;22.98;;;12.48;;
68188;SDS011;66299;47.514;19.218;2023-05-17T06:55:31;24.08;;;12.27;;
68188;SDS011;66299;47.514;19.218;2023-05-17T06:58:01;23.60;;;12.45;;
68188;SDS011;66299;47.514;19.218;2023-05-17T07:00:32;22.77;;;12.50;;
68188;SDS011;66299;47.514;19.218;2023-05-17T07:03:02;29.95;;;12.10;;
68188;SDS011;66299;47.514;19.218;2023-05-17T07:05:34;25.73;;;13.23;;
68188;SDS011;66299;47.514;19.218;2023-05-17T07:08:03;25.63;;;12.20;;
68188;SDS011;66299;47.514;19.218;2023-05-17T07:10:32;24.40;;;12.65;;
68188;SDS011;66299;47.514;19.218;2023-05-17T07:13:02;28.63;;;12.40;;
68188;SDS011;66299;47.514;19.218;2023-05-17T07:15:36;24.10;;;12.13;;
68188;SDS011;66299;47.514;19.218;2023-05-17T07:18:05;24.08;;;11.60;;
68188;SDS011;66299;47.514;19.218;2023-05-17T07:20:48;25.92;;;11.88;;
68188;SDS011;66299;47.514;19.218;2023-05-17T07:23:19;22.27;;;11.63;;
68188;SDS011;66299;47.514;19.218;2023-05-17T07:25:50;23.83;;;12.30;;
68188;SDS011;66299;47.514;19.218;2023-05-17T07:28:18;26.55;;;12.40;;
68188;SDS011;66299;47.514;19.218;2023-05-17T07:30:51;25.13;;;12.30;;
68188;SDS011;66299;47.514;19.218;2023-05-17T07:33:21;26.10;;;13.02;;
68188;SDS011;66299;47.514;19.218;2023-05-17T07:36:07;27.70;;;12.75;;
68188;SDS011;66299;47.514;19.218;2023-05-17T07:38:37;24.67;;;12.40;;
68188;SDS011;66299;47.514;19.218;2023-05-17T07:41:11;25.35;;;12.88;;
68188;SDS011;66299;47.514;19.218;2023-05-17T07:43:47;24.92;;;13.45;;
68188;SDS011;66299;47.514;19.218;2023-05-17T07:46:18;31.20;;;15.83;;
68188;SDS011;66299;47.514;19.218;2023-05-17T07:48:48;30.98;;;16.35;;
68188;SDS011;66299;47.514;19.218;2023-05-17T07:51:20;36.78;;;16.55;;
68188;SDS011;66299;47.514;19.218;2023-05-17T07:53:48;41.30;;;16.85;;
68188;SDS011;66299;47.514;19.218;2023-05-17T07:56:18;30.00;;;16.67;;
68188;SDS011;66299;47.514;19.218;2023-05-17T07:58:48;31.73;;;17.33;;
68188;SDS011;66299;47.514;19.218;2023-05-17T08:01:19;34.33;;;16.65;;
68188;SDS011;66299;47.514;19.218;2023-05-17T08:03:50;30.67;;;17.05;;
68188;SDS011;66299;47.514;19.218;2023-05-17T08:06:21;34.10;;;18.05;;
68188;SDS011;66299;47.514;19.218;2023-05-17T08:08:55;38.50;;;17.55;;
68188;SDS011;66299;47.514;19.218;2023-05-17T08:11:26;34.95;;;18.38;;
68188;SDS011;66299;47.514;19.218;2023-05-17T08:14:02;35.88;;;18.55;;
68188;SDS011;66299;47.514;19.218;2023-05-17T08:16:35;33.47;;;18.48;;
68188;SDS011;66299;47.514;19.218;2023-05-17T08:19:06;33.33;;;18.27;;
68188;SDS011;66299;47.514;19.218;2023-05-17T08:21:40;32.72;;;17.58;;
68188;SDS011;66299;47.514;19.218;2023-05-17T08:24:12;35.40;;;17.85;;
68188;SDS011;66299;47.514;19.218;2023-05-17T08:26:45;36.05;;;18.55;;
68188;SDS011;66299;47.514;19.218;2023-05-17T08:29:17;33.53;;;17.48;;
68188;SDS011;66299;47.514;19.218;2023-05-17T08:31:45;30.40;;;17.55;;
68188;SDS011;66299;47.514;19.218;2023-05-17T08:34:18;33.53;;;17.90;;
68188;SDS011;66299;47.514;19.218;2023-05-17T08:36:50;32.17;;;16.90;;
68188;SDS011;66299;47.514;19.218;2023-05-17T08:42:08;32.35;;;17.73;;
68188;SDS011;66299;47.514;19.218;2023-05-17T08:44:45;33.83;;;17.05;;
68188;SDS011;66299;47.514;19.218;2023-05-17T08:47:16;31.90;;;17.30;;
68188;SDS011;66299;47.514;19.218;2023-05-17T08:49:57;31.48;;;17.15;;
68188;SDS011;66299;47.514;19.218;2023-05-17T08:52:31;31.23;;;17.00;;
68188;SDS011;66299;47.514;19.218;2023-05-17T08:55:03;31.98;;;16.92;;
68188;SDS011;66299;47.514;19.218;2023-05-17T08:57:34;32.72;;;16.60;;
68188;SDS011;66299;47.514;19.218;2023-05-17T09:00:07;28.95;;;16.42;;
68188;SDS011;66299;47.514;19.218;2023-05-17T09:02:45;31.13;;;17.83;;
68188;SDS011;66299;47.514;19.218;2023-05-17T09:05:14;36.83;;;18.00;;
68188;SDS011;66299;47.514;19.218;2023-05-17T09:07:48;34.30;;;17.95;;
68188;SDS011;66299;47.514;19.218;2023-05-17T09:10:23;33.53;;;19.25;;
68188;SDS011;66299;47.514;19.218;2023-05-17T09:12:53;33.30;;;19.67;;
68188;SDS011;66299;47.514;19.218;2023-05-17T09:15:24;40.47;;;21.90;;
68188;SDS011;66299;47.514;19.218;2023-05-17T09:17:57;43.05;;;21.70;;
68188;SDS011;66299;47.514;19.218;2023-05-17T09:20:27;39.05;;;21.23;;
68188;SDS011;66299;47.514;19.218;2023-05-17T09:23:02;35.17;;;20.35;;
68188;SDS011;66299;47.514;19.218;2023-05-17T09:25:33;36.55;;;20.02;;
68188;SDS011;66299;47.514;19.218;2023-05-17T09:28:05;42.20;;;19.95;;
68188;SDS011;66299;47.514;19.218;2023-05-17T09:30:37;35.72;;;18.38;;
68188;SDS011;66299;47.514;19.218;2023-05-17T09:33:08;36.10;;;18.35;;
68188;SDS011;66299;47.514;19.218;2023-05-17T09:35:42;33.60;;;17.40;;
68188;SDS011;66299;47.514;19.218;2023-05-17T09:38:14;33.47;;;16.95;;
68188;SDS011;66299;47.514;19.218;2023-05-17T09:40:44;29.20;;;17.02;;
68188;SDS011;66299;47.514;19.218;2023-05-17T09:43:16;35.42;;;17.10;;
68188;SDS011;66299;47.514;19.218;2023-05-17T09:45:57;31.67;;;17.02;;
68188;SDS011;66299;47.514;19.218;2023-05-17T09:48:30;33.33;;;17.08;;
68188;SDS011;66299;47.514;19.218;2023-05-17T09:50:59;36.38;;;17.20;;
68188;SDS011;66299;47.514;19.218;2023-05-17T09:53:30;27.70;;;16.52;;
68188;SDS011;66299;47.514;19.218;2023-05-17T09:56:05;32.78;;;17.30;;
68188;SDS011;66299;47.514;19.218;2023-05-17T09:58:39;33.22;;;17.05;;
68188;SDS011;66299;47.514;19.218;2023-05-17T10:01:16;34.22;;;17.63;;
68188;SDS011;66299;47.514;19.218;2023-05-17T10:03:48;32.67;;;17.40;;
68188;SDS011;66299;47.514;19.218;2023-05-17T10:06:19;36.50;;;17.83;;
68188;SDS011;66299;47.514;19.218;2023-05-17T10:09:16;29.77;;;17.60;;
68188;SDS011;66299;47.514;19.218;2023-05-17T10:11:51;28.58;;;16.58;;
68188;SDS011;66299;47.514;19.218;2023-05-17T10:14:22;30.88;;;15.90;;
68188;SDS011;66299;47.514;19.218;2023-05-17T10:16:58;32.17;;;16.90;;
68188;SDS011;66299;47.514;19.218;2023-05-17T10:19:36;31.95;;;17.23;;
68188;SDS011;66299;47.514;19.218;2023-05-17T10:22:09;25.42;;;15.60;;
68188;SDS011;66299;47.514;19.218;2023-05-17T10:24:52;26.42;;;15.18;;
68188;SDS011;66299;47.514;19.218;2023-05-17T10:27:26;28.38;;;14.63;;
68188;SDS011;66299;47.514;19.218;2023-05-17T10:30:02;26.88;;;15.27;;
68188;SDS011;66299;47.514;19.218;2023-05-17T10:32:34;34.10;;;15.27;;
68188;SDS011;66299;47.514;19.218;2023-05-17T10:35:10;29.38;;;14.57;;
68188;SDS011;66299;47.514;19.218;2023-05-17T10:37:43;30.80;;;14.43;;
68188;SDS011;66299;47.514;19.218;2023-05-17T10:40:15;28.42;;;14.57;;
68188;SDS011;66299;47.514;19.218;2023-05-17T10:42:48;29.98;;;15.40;;
68188;SDS011;66299;47.514;19.218;2023-05-17T10:45:19;27.55;;;14.48;;
68188;SDS011;66299;47.514;19.218;2023-05-17T10:47:53;28.73;;;14.38;;
68188;SDS011;66299;47.514;19.218;2023-05-17T10:50:26;28.73;;;14.77;;
68188;SDS011;66299;47.514;19.218;2023-05-17T10:52:56;27.77;;;15.05;;
68188;SDS011;66299;47.514;19.218;2023-05-17T10:55:37;29.98;;;16.17;;
68188;SDS011;66299;47.514;19.218;2023-05-17T10:58:07;28.17;;;15.80;;
68188;SDS011;66299;47.514;19.218;2023-05-17T11:00:45;27.23;;;16.17;;
68188;SDS011;66299;47.514;19.218;2023-05-17T11:03:18;28.23;;;15.63;;
68188;SDS011;66299;47.514;19.218;2023-05-17T11:09:06;26.42;;;15.45;;
68188;SDS011;66299;47.514;19.218;2023-05-17T11:11:37;27.92;;;14.43;;
68188;SDS011;66299;47.514;19.218;2023-05-17T11:17:25;24.80;;;13.23;;
68188;SDS011;66299;47.514;19.218;2023-05-17T11:20:04;27.25;;;12.90;;
68188;SDS011;66299;47.514;19.218;2023-05-17T11:22:42;21.95;;;12.25;;
68188;SDS011;66299;47.514;19.218;2023-05-17T11:25:18;23.17;;;11.93;;
68188;SDS011;66299;47.514;19.218;2023-05-17T11:27:53;21.88;;;12.48;;
68188;SDS011;66299;47.514;19.218;2023-05-17T11:30:24;23.42;;;11.48;;
68188;SDS011;66299;47.514;19.218;2023-05-17T11:32:58;23.92;;;10.77;;
68188;SDS011;66299;47.514;19.218;2023-05-17T11:35:34;20.48;;;10.85;;
68188;SDS011;66299;47.514;19.218;2023-05-17T11:40:41;18.88;;;9.73;;
68188;SDS011;66299;47.514;19.218;2023-05-17T11:43:13;21.48;;;10.75;;
68188;SDS011;66299;47.514;19.218;2023-05-17T11:45:49;22.63;;;10.38;;
68188;SDS011;66299;47.514;19.218;2023-05-17T11:48:20;19.05;;;9.73;;
68188;SDS011;66299;47.514;19.218;2023-05-17T11:50:53;20.75;;;10.10;;
68188;SDS011;66299;47.514;19.218;2023-05-17T11:53:29;26.45;;;9.80;;
68188;SDS011;66299;47.514;19.218;2023-05-17T11:58:34;22.42;;;10.02;;
68188;SDS011;66299;47.514;19.218;2023-05-17T12:01:04;20.95;;;9.90;;
68188;SDS011;66299;47.514;19.218;2023-05-17T12:03:37;22.13;;;10.63;;
68188;SDS011;66299;47.514;19.218;2023-05-17T12:06:15;19.45;;;10.15;;
68188;SDS011;66299;47.514;19.218;2023-05-17T12:08:45;19.17;;;9.93;;
68188;SDS011;66299;47.514;19.218;2023-05-17T12:11:15;19.60;;;9.43;;
68188;SDS011;66299;47.514;19.218;2023-05-17T12:13:50;19.73;;;9.20;;
68188;SDS011;66299;47.514;19.218;2023-05-17T12:16:24;16.20;;;8.27;;
68188;SDS011;66299;47.514;19.218;2023-05-17T12:18:56;17.85;;;7.75;;
68188;SDS011;66299;47.514;19.218;2023-05-17T12:23:55;15.00;;;6.68;;
68188;SDS011;66299;47.514;19.218;2023-05-17T12:26:25;14.70;;;6.70;;
68188;SDS011;66299;47.514;19.218;2023-05-17T12:28:58;13.55;;;6.45;;
68188;SDS011;66299;47.514;19.218;2023-05-17T12:31:33;17.85;;;7.82;;
68188;SDS011;66299;47.514;19.218;2023-05-17T12:34:08;19.08;;;7.00;;
68188;SDS011;66299;47.514;19.218;2023-05-17T12:36:40;17.92;;;7.28;;
68188;SDS011;66299;47.514;19.218;2023-05-17T12:39:10;14.35;;;7.07;;
68188;SDS011;66299;47.514;19.218;2023-05-17T12:41:41;16.17;;;6.50;;
68188;SDS011;66299;47.514;19.218;2023-05-17T12:44:16;13.97;;;6.63;;
68188;SDS011;66299;47.514;19.218;2023-05-17T12:46:49;15.60;;;6.55;;
68188;SDS011;66299;47.514;19.218;2023-05-17T12:49:25;12.68;;;6.53;;
68188;SDS011;66299;47.514;19.218;2023-05-17T12:51:55;12.82;;;6.18;;
68188;SDS011;66299;47.514;19.218;2023-05-17T12:54:33;12.75;;;6.25;;
68188;SDS011;66299;47.514;19.218;2023-05-17T12:57:11;16.08;;;6.07;;
68188;SDS011;66299;47.514;19.218;2023-05-17T12:59:48;13.80;;;6.15;;
68188;SDS011;66299;47.514;19.218;2023-05-17T13:02:21;16.48;;;6.03;;
68188;SDS011;66299;47.514;19.218;2023-05-17T13:04:50;14.52;;;5.88;;
68188;SDS011;66299;47.514;19.218;2023-05-17T13:09:52;12.40;;;5.40;;
68188;SDS011;66299;47.514;19.218;2023-05-17T13:12:22;13.85;;;5.53;;
68188;SDS011;66299;47.514;19.218;2023-05-17T13:14:53;12.93;;;5.30;;
68188;SDS011;66299;47.514;19.218;2023-05-17T13:17:25;15.63;;;4.72;;
68188;SDS011;66299;47.514;19.218;2023-05-17T13:20:05;15.13;;;5.22;;
68188;SDS011;66299;47.514;19.218;2023-05-17T13:22:39;15.00;;;4.80;;
68188;SDS011;66299;47.514;19.218;2023-05-17T13:25:15;14.88;;;5.80;;
68188;SDS011;66299;47.514;19.218;2023-05-17T13:27:49;11.60;;;5.00;;
68188;SDS011;66299;47.514;19.218;2023-05-17T13:30:28;15.10;;;5.57;;
68188;SDS011;66299;47.514;19.218;2023-05-17T13:33:04;12.40;;;4.80;;
68188;SDS011;66299;47.514;19.218;2023-05-17T13:35:37;11.80;;;4.88;;
68188;SDS011;66299;47.514;19.218;2023-05-17T13:38:08;14.63;;;4.80;;
68188;SDS011;66299;47.514;19.218;2023-05-17T13:40:40;13.20;;;4.30;;
68188;SDS011;66299;47.514;19.218;2023-05-17T13:45:43;12.43;;;4.72;;
68188;SDS011;66299;47.514;19.218;2023-05-17T13:48:16;12.38;;;5.15;;
68188;SDS011;66299;47.514;19.218;2023-05-17T13:50:46;13.55;;;4.80;;
68188;SDS011;66299;47.514;19.218;2023-05-17T13:53:17;13.55;;;4.68;;
68188;SDS011;66299;47.514;19.218;2023-05-17T13:55:49;14.67;;;4.80;;
68188;SDS011;66299;47.514;19.218;2023-05-17T13:58:19;13.20;;;4.70;;
68188;SDS011;66299;47.514;19.218;2023-05-17T14:00:52;16.13;;;4.60;;
68188;SDS011;66299;47.514;19.218;2023-05-17T14:03:23;13.82;;;4.40;;
68188;SDS011;66299;47.514;19.218;2023-05-17T14:05:52;14.70;;;5.10;;
68188;SDS011;66299;47.514;19.218;2023-05-17T14:08:22;11.35;;;4.72;;
68188;SDS011;66299;47.514;19.218;2023-05-17T14:10:53;11.93;;;4.45;;
68188;SDS011;66299;47.514;19.218;2023-05-17T14:13:26;13.88;;;4.80;;
68188;SDS011;66299;47.514;19.218;2023-05-17T14:15:57;11.00;;;4.15;;
68188;SDS011;66299;47.514;19.218;2023-05-17T14:18:27;9.88;;;3.90;;
68188;SDS011;66299;47.514;19.218;2023-05-17T14:21:00;18.50;;;4.47;;
68188;SDS011;66299;47.514;19.218;2023-05-17T14:23:29;10.90;;;4.20;;
68188;SDS011;66299;47.514;19.218;2023-05-17T14:26:00;9.77;;;4.30;;
68188;SDS011;66299;47.514;19.218;2023-05-17T14:28:37;15.57;;;4.20;;
68188;SDS011;66299;47.514;19.218;2023-05-17T14:31:13;10.75;;;3.95;;
68188;SDS011;66299;47.514;19.218;2023-05-17T14:33:43;14.45;;;4.32;;
68188;SDS011;66299;47.514;19.218;2023-05-17T14:36:14;14.50;;;4.45;;
68188;SDS011;66299;47.514;19.218;2023-05-17T14:38:50;10.88;;;3.88;;
68188;SDS011;66299;47.514;19.218;2023-05-17T14:41:19;14.43;;;4.27;;
68188;SDS011;66299;47.514;19.218;2023-05-17T14:43:56;14.88;;;4.47;;
68188;SDS011;66299;47.514;19.218;2023-05-17T14:46:26;12.30;;;4.35;;
68188;SDS011;66299;47.514;19.218;2023-05-17T14:48:56;10.55;;;4.55;;
68188;SDS011;66299;47.514;19.218;2023-05-17T14:51:33;15.75;;;4.68;;
68188;SDS011;66299;47.514;19.218;2023-05-17T14:54:05;11.07;;;4.13;;
68188;SDS011;66299;47.514;19.218;2023-05-17T14:56:39;10.68;;;4.18;;
68188;SDS011;66299;47.514;19.218;2023-05-17T14:59:08;14.80;;;3.92;;
68188;SDS011;66299;47.514;19.218;2023-05-17T15:01:40;11.88;;;3.45;;
68188;SDS011;66299;47.514;19.218;2023-05-17T15:04:13;11.02;;;3.50;;
68188;SDS011;66299;47.514;19.218;2023-05-17T15:06:45;16.55;;;3.63;;
68188;SDS011;66299;47.514;19.218;2023-05-17T15:09:19;11.75;;;3.83;;
68188;SDS011;66299;47.514;19.218;2023-05-17T15:11:52;12.20;;;3.85;;